Time;durP1;ratioP1;P1;durP2;ratioP2;P2;SDS_P1;SDS_P2;PMS_P1;PMS_P2;Temp;Humidity;BMP_temperature;BMP_pressure;BME280_temperature;BME280_humidity;BME280_pressure;Samples;Min_cycle;Max_cycle;Signal;HPM_P1;HPM_P2
2020/12/04 00:00:07;;;;;;;9.93;7.25;;;;;;;;;;5009697;28;20754;-53
2020/12/04 00:02:33;;;;;;;8.20;6.50;;;;;;;;;;5009793;28;20683;-53
2020/12/04 00:04:59;;;;;;;9.20;7.00;;;;;;;;;;5010447;28;20187;-52
2020/12/04 00:07:25;;;;;;;8.70;6.70;;;;;;;;;;5010538;28;20861;-53
2020/12/04 00:09:51;;;;;;;9.37;6.10;;;;;;;;;;5010482;28;20410;-51
2020/12/04 00:12:17;;;;;;;8.10;6.13;;;;;;;;;;5010246;28;20403;-52
2020/12/04 00:14:43;;;;;;;8.83;6.50;;;;;;;;;;5009448;28;20530;-52
2020/12/04 00:17:09;;;;;;;7.40;6.60;;;;;;;;;;5010371;28;20421;-52
2020/12/04 00:19:35;;;;;;;10.10;6.57;;;;;;;;;;5014077;28;20392;-52
2020/12/04 00:22:01;;;;;;;8.33;6.60;;;;;;;;;;5013588;28;20941;-52
2020/12/04 00:24:29;;;;;;;8.57;6.23;;;;;;;;;;5014013;28;20500;-52
2020/12/04 00:26:55;;;;;;;8.52;7.18;;;;;;;;;;5013857;28;20395;-54
2020/12/04 00:29:21;;;;;;;7.20;6.50;;;;;;;;;;5014049;28;20180;-53
2020/12/04 00:31:47;;;;;;;7.20;5.70;;;;;;;;;;5012778;28;20175;-52
2020/12/04 00:34:13;;;;;;;11.30;7.50;;;;;;;;;;5013516;28;20226;-53
2020/12/04 00:36:39;;;;;;;7.38;5.63;;;;;;;;;;5013652;28;20408;-51
2020/12/04 00:39:05;;;;;;;7.73;5.73;;;;;;;;;;5013817;28;20203;-51
2020/12/04 00:41:31;;;;;;;8.20;6.70;;;;;;;;;;5013739;28;20403;-51
2020/12/04 00:43:57;;;;;;;9.20;6.43;;;;;;;;;;5013650;28;20422;-53
2020/12/04 00:46:23;;;;;;;7.90;6.37;;;;;;;;;;5013834;28;20481;-51
2020/12/04 00:48:49;;;;;;;8.20;5.90;;;;;;;;;;5013474;28;20900;-51
2020/12/04 00:51:15;;;;;;;7.20;6.10;;;;;;;;;;5013504;28;20501;-52
2020/12/04 00:53:41;;;;;;;6.83;6.13;;;;;;;;;;5013121;28;20427;-53
2020/12/04 00:56:07;;;;;;;7.17;5.63;;;;;;;;;;5013453;28;20403;-51
2020/12/04 00:58:33;;;;;;;8.27;6.10;;;;;;;;;;5013159;28;20469;-52
2020/12/04 01:01:00;;;;;;;8.20;6.30;;;;;;;;;;5012504;28;20450;-51
2020/12/04 01:03:26;;;;;;;7.60;5.72;;;;;;;;;;5012944;28;20425;-52
2020/12/04 01:05:52;;;;;;;7.43;5.63;;;;;;;;;;5013205;28;20175;-52
2020/12/04 01:08:18;;;;;;;5.03;4.53;;;;;;;;;;5013280;28;20252;-51
2020/12/04 01:10:44;;;;;;;6.63;5.83;;;;;;;;;;5013114;28;20202;-52
2020/12/04 01:13:10;;;;;;;5.63;5.03;;;;;;;;;;5012711;28;20400;-52
2020/12/04 01:15:36;;;;;;;6.43;5.50;;;;;;;;;;5013045;28;20395;-51
2020/12/04 01:18:02;;;;;;;7.67;5.30;;;;;;;;;;5012801;28;20450;-53
2020/12/04 01:20:28;;;;;;;6.97;5.80;;;;;;;;;;5012759;28;20427;-52
2020/12/04 01:22:53;;;;;;;9.20;5.77;;;;;;;;;;5012688;28;20405;-52
2020/12/04 01:25:19;;;;;;;7.63;5.83;;;;;;;;;;5012627;28;21116;-52
2020/12/04 01:27:45;;;;;;;6.53;5.60;;;;;;;;;;5012780;28;20395;-53
2020/12/04 01:30:11;;;;;;;6.43;5.20;;;;;;;;;;5011714;28;20411;-52
2020/12/04 01:32:37;;;;;;;6.07;5.47;;;;;;;;;;5011512;28;20429;-53
2020/12/04 01:35:04;;;;;;;6.67;5.83;;;;;;;;;;5012298;28;20965;-51
2020/12/04 01:37:30;;;;;;;6.18;5.55;;;;;;;;;;5012557;28;20466;-52
2020/12/04 01:39:56;;;;;;;6.97;5.50;;;;;;;;;;5012456;28;20192;-51
2020/12/04 01:42:22;;;;;;;5.83;5.23;;;;;;;;;;5012249;28;20656;-52
2020/12/04 01:44:48;;;;;;;7.40;6.22;;;;;;;;;;5012253;28;20839;-51
2020/12/04 01:47:16;;;;;;;5.60;4.90;;;;;;;;;;5012452;28;20182;-51
2020/12/04 01:49:42;;;;;;;6.00;5.22;;;;;;;;;;5012182;28;20460;-52
2020/12/04 01:52:09;;;;;;;5.32;4.82;;;;;;;;;;5012268;28;20172;-51
2020/12/04 01:54:35;;;;;;;7.95;5.13;;;;;;;;;;5012495;28;20560;-51
2020/12/04 01:57:02;;;;;;;6.00;4.43;;;;;;;;;;5012141;28;20168;-52
2020/12/04 01:59:28;;;;;;;5.97;5.35;;;;;;;;;;5012236;28;20479;-54
2020/12/04 02:02:01;;;;;;;5.68;5.00;;;;;;;;;;5010541;28;20176;-52
2020/12/04 02:04:27;;;;;;;5.60;4.80;;;;;;;;;;5011375;28;20275;-53
2020/12/04 02:06:56;;;;;;;7.47;5.57;;;;;;;;;;5011707;28;20259;-53
2020/12/04 02:09:24;;;;;;;7.20;5.22;;;;;;;;;;5012021;28;20411;-53
2020/12/04 02:11:51;;;;;;;5.80;5.30;;;;;;;;;;5011814;28;20200;-52
2020/12/04 02:14:17;;;;;;;5.70;5.10;;;;;;;;;;5011781;28;20192;-52
2020/12/04 02:16:45;;;;;;;7.13;5.03;;;;;;;;;;5011727;28;20172;-52
2020/12/04 02:19:12;;;;;;;6.20;5.60;;;;;;;;;;5012037;28;20212;-53
2020/12/04 02:21:39;;;;;;;6.50;5.50;;;;;;;;;;5011680;28;20204;-52
2020/12/04 02:24:05;;;;;;;7.75;5.57;;;;;;;;;;5011644;28;20192;-53
2020/12/04 02:26:32;;;;;;;6.13;5.50;;;;;;;;;;5011605;28;20172;-53
2020/12/04 02:29:02;;;;;;;5.47;4.93;;;;;;;;;;5011738;28;20224;-53
2020/12/04 02:31:28;;;;;;;6.70;5.53;;;;;;;;;;5009954;28;20187;-53
2020/12/04 02:33:54;;;;;;;4.80;4.40;;;;;;;;;;5011341;28;20567;-53
2020/12/04 02:36:20;;;;;;;5.90;4.90;;;;;;;;;;5011785;28;20417;-53
2020/12/04 02:38:46;;;;;;;5.15;4.40;;;;;;;;;;5011656;28;20454;-53
2020/12/04 02:41:12;;;;;;;5.87;4.77;;;;;;;;;;5010844;28;20180;-53
2020/12/04 02:43:39;;;;;;;6.60;4.77;;;;;;;;;;5011370;28;20446;-53
2020/12/04 02:46:08;;;;;;;4.35;4.03;;;;;;;;;;5011560;28;20400;-52
2020/12/04 02:48:34;;;;;;;5.22;4.53;;;;;;;;;;5011353;28;20180;-52
2020/12/04 02:50:59;;;;;;;4.20;3.80;;;;;;;;;;5011454;28;20253;-51
2020/12/04 02:53:25;;;;;;;4.63;4.23;;;;;;;;;;5011647;28;20667;-50
2020/12/04 02:55:51;;;;;;;4.80;4.30;;;;;;;;;;5011348;28;20768;-50
2020/12/04 02:58:17;;;;;;;4.10;3.77;;;;;;;;;;5011046;28;20450;-51
2020/12/04 03:00:43;;;;;;;5.10;4.17;;;;;;;;;;5011124;28;20465;-50
2020/12/04 03:03:09;;;;;;;6.37;4.10;;;;;;;;;;5009969;28;20434;-50
2020/12/04 03:05:36;;;;;;;6.47;3.10;;;;;;;;;;5011337;28;20470;-50
2020/12/04 03:11:06;;;;;;;4.40;4.07;;;;;;;;;;5010060;28;20381;-50
2020/12/04 03:13:32;;;;;;;4.53;3.55;;;;;;;;;;5011012;28;20188;-50
2020/12/04 03:15:58;;;;;;;4.97;4.35;;;;;;;;;;5011061;28;20589;-50
2020/12/04 03:18:24;;;;;;;4.22;3.83;;;;;;;;;;5011047;28;20226;-49
2020/12/04 03:20:50;;;;;;;4.77;4.23;;;;;;;;;;5010845;28;20165;-50
2020/12/04 03:23:16;;;;;;;4.10;3.73;;;;;;;;;;5010713;28;20408;-50
2020/12/04 03:25:42;;;;;;;5.03;4.20;;;;;;;;;;5010766;28;20921;-50
2020/12/04 03:28:08;;;;;;;4.53;4.13;;;;;;;;;;5010932;28;20180;-50
2020/12/04 03:30:34;;;;;;;5.50;4.40;;;;;;;;;;5010710;28;20493;-50
2020/12/04 03:33:00;;;;;;;4.38;3.90;;;;;;;;;;5009986;28;20433;-51
2020/12/04 03:35:26;;;;;;;3.97;3.50;;;;;;;;;;5010701;28;20194;-50
2020/12/04 03:37:52;;;;;;;5.07;3.60;;;;;;;;;;5010750;28;20199;-52
2020/12/04 03:40:18;;;;;;;3.70;3.40;;;;;;;;;;5009908;28;20845;-52
2020/12/04 03:42:44;;;;;;;4.33;3.73;;;;;;;;;;5010588;28;20396;-50
2020/12/04 03:45:10;;;;;;;3.13;2.90;;;;;;;;;;5010595;28;20419;-49
2020/12/04 03:47:39;;;;;;;4.63;4.22;;;;;;;;;;5009926;28;20435;-50
2020/12/04 03:50:05;;;;;;;3.38;2.85;;;;;;;;;;5010790;28;20595;-50
2020/12/04 03:52:32;;;;;;;3.70;3.40;;;;;;;;;;5011041;28;20212;-51
2020/12/04 03:54:58;;;;;;;3.55;3.25;;;;;;;;;;5014669;28;20200;-51
2020/12/04 03:57:23;;;;;;;3.53;3.23;;;;;;;;;;5014247;28;20181;-50
2020/12/04 03:59:49;;;;;;;3.90;3.60;;;;;;;;;;5014410;28;20407;-52
2020/12/04 04:02:15;;;;;;;3.70;3.40;;;;;;;;;;5014023;28;20411;-51
2020/12/04 04:04:41;;;;;;;4.73;3.70;;;;;;;;;;5014335;28;20848;-50
2020/12/04 04:07:07;;;;;;;4.63;3.53;;;;;;;;;;5013320;28;20427;-51
2020/12/04 04:09:33;;;;;;;4.40;3.77;;;;;;;;;;5014225;28;20949;-50
2020/12/04 04:11:59;;;;;;;4.20;3.60;;;;;;;;;;5013861;28;20883;-51
2020/12/04 04:14:25;;;;;;;4.37;3.97;;;;;;;;;;5014066;28;20504;-52
2020/12/04 04:16:51;;;;;;;3.63;3.33;;;;;;;;;;5014094;28;20405;-50
2020/12/04 04:19:17;;;;;;;3.30;3.10;;;;;;;;;;5014055;28;20531;-50
2020/12/04 04:21:43;;;;;;;3.50;3.20;;;;;;;;;;5013954;28;20494;-50
2020/12/04 04:24:09;;;;;;;3.80;3.50;;;;;;;;;;5013611;28;20421;-50
2020/12/04 04:26:35;;;;;;;4.27;3.87;;;;;;;;;;5013991;28;20395;-50
2020/12/04 04:29:01;;;;;;;4.00;3.70;;;;;;;;;;5013848;28;20420;-50
2020/12/04 04:31:27;;;;;;;3.55;3.25;;;;;;;;;;5013960;28;20487;-50
2020/12/04 04:33:53;;;;;;;3.25;2.95;;;;;;;;;;5011755;28;20272;-50
2020/12/04 04:36:19;;;;;;;4.53;4.13;;;;;;;;;;5013688;28;20666;-50
2020/12/04 04:38:45;;;;;;;4.20;3.90;;;;;;;;;;5013587;28;20452;-50
2020/12/04 04:41:13;;;;;;;5.57;4.13;;;;;;;;;;5012973;28;20193;-50
2020/12/04 04:43:39;;;;;;;3.55;3.25;;;;;;;;;;5013422;28;20197;-50
2020/12/04 04:46:14;;;;;;;4.00;3.60;;;;;;;;;;5012434;28;20208;-50
2020/12/04 04:48:44;;;;;;;4.55;3.78;;;;;;;;;;5012656;28;20806;-53
2020/12/04 04:51:10;;;;;;;4.35;3.92;;;;;;;;;;5013782;28;20202;-50
2020/12/04 04:53:36;;;;;;;6.30;4.85;;;;;;;;;;5013144;28;20184;-50
2020/12/04 04:56:02;;;;;;;5.68;4.70;;;;;;;;;;5013675;28;20671;-49
2020/12/04 04:58:31;;;;;;;4.73;4.33;;;;;;;;;;5013586;28;20188;-51
2020/12/04 05:00:57;;;;;;;5.25;4.75;;;;;;;;;;5013484;28;20482;-49
2020/12/04 05:03:23;;;;;;;5.27;4.77;;;;;;;;;;5012987;28;20242;-48
2020/12/04 05:05:52;;;;;;;6.00;5.45;;;;;;;;;;5012482;28;20395;-49
2020/12/04 05:08:19;;;;;;;5.25;4.78;;;;;;;;;;5013223;28;20176;-49
2020/12/04 05:10:49;;;;;;;5.15;4.35;;;;;;;;;;5012172;28;20173;-51
2020/12/04 05:13:21;;;;;;;4.70;3.92;;;;;;;;;;5012736;28;20181;-49
2020/12/04 05:15:47;;;;;;;6.30;4.70;;;;;;;;;;5012937;28;20176;-49
2020/12/04 05:18:15;;;;;;;5.75;5.25;;;;;;;;;;5012907;28;20198;-51
2020/12/04 05:20:42;;;;;;;6.07;4.88;;;;;;;;;;5012862;28;20250;-49
2020/12/04 05:23:08;;;;;;;4.35;3.95;;;;;;;;;;5012760;28;20181;-50
2020/12/04 05:25:41;;;;;;;5.60;4.88;;;;;;;;;;5012744;28;20279;-52
2020/12/04 05:28:09;;;;;;;8.48;4.28;;;;;;;;;;5012854;28;20175;-53
2020/12/04 05:30:35;;;;;;;4.47;4.15;;;;;;;;;;5012521;28;20175;-52
2020/12/04 05:33:01;;;;;;;6.75;5.03;;;;;;;;;;5012673;28;20176;-51
2020/12/04 05:35:28;;;;;;;4.70;4.30;;;;;;;;;;5012442;28;20194;-51
2020/12/04 05:38:13;;;;;;;5.00;4.50;;;;;;;;;;5012493;28;20242;-52
2020/12/04 05:40:40;;;;;;;4.75;4.30;;;;;;;;;;5012355;28;20172;-53
2020/12/04 05:43:06;;;;;;;4.32;3.92;;;;;;;;;;5011384;28;20177;-50
2020/12/04 05:45:33;;;;;;;4.28;3.88;;;;;;;;;;5012535;28;20639;-50
2020/12/04 05:47:59;;;;;;;4.65;4.25;;;;;;;;;;5012289;28;20173;-50
2020/12/04 05:50:25;;;;;;;4.53;4.10;;;;;;;;;;5012338;28;20175;-52
2020/12/04 05:52:51;;;;;;;4.75;4.35;;;;;;;;;;5012016;28;20663;-50
2020/12/04 05:55:17;;;;;;;4.38;4.00;;;;;;;;;;5012295;28;20195;-51
2020/12/04 05:57:47;;;;;;;4.25;3.90;;;;;;;;;;5012001;28;20719;-52
2020/12/04 06:00:14;;;;;;;3.83;3.53;;;;;;;;;;5012098;28;20632;-53
2020/12/04 06:02:40;;;;;;;4.55;4.10;;;;;;;;;;5011923;28;20244;-52
2020/12/04 06:05:10;;;;;;;3.17;2.95;;;;;;;;;;5012220;28;20203;-52
2020/12/04 06:07:37;;;;;;;4.72;3.78;;;;;;;;;;5011969;28;20168;-50
2020/12/04 06:10:03;;;;;;;4.20;3.80;;;;;;;;;;5011980;28;20164;-52
2020/12/04 06:12:29;;;;;;;3.88;3.58;;;;;;;;;;5010134;28;20176;-50
2020/12/04 06:14:55;;;;;;;4.90;3.83;;;;;;;;;;5011621;28;20195;-50
2020/12/04 06:17:21;;;;;;;3.80;3.50;;;;;;;;;;5011582;28;20944;-51
2020/12/04 06:19:47;;;;;;;3.43;3.20;;;;;;;;;;5011864;28;20427;-51
2020/12/04 06:22:14;;;;;;;3.90;3.50;;;;;;;;;;5011586;28;20466;-52
2020/12/04 06:25:00;;;;;;;4.40;4.00;;;;;;;;;;5011544;28;20217;-50
2020/12/04 06:27:38;;;;;;;7.13;3.80;;;;;;;;;;5012003;28;20190;-50
2020/12/04 06:30:06;;;;;;;3.53;3.28;;;;;;;;;;5011656;28;20168;-50
2020/12/04 06:32:36;;;;;;;3.70;3.50;;;;;;;;;;5011552;28;20219;-50
2020/12/04 06:35:03;;;;;;;4.55;3.50;;;;;;;;;;5011322;28;20676;-50
2020/12/04 06:37:34;;;;;;;3.55;3.25;;;;;;;;;;5011648;28;20176;-50
2020/12/04 06:40:20;;;;;;;4.07;3.55;;;;;;;;;;5011781;28;20543;-49
2020/12/04 06:42:46;;;;;;;4.13;3.73;;;;;;;;;;5010531;28;20551;-50
2020/12/04 06:45:12;;;;;;;4.00;3.70;;;;;;;;;;5011516;28;20419;-50
2020/12/04 06:47:38;;;;;;;4.67;4.20;;;;;;;;;;5011548;28;20427;-50
2020/12/04 06:50:04;;;;;;;4.40;4.10;;;;;;;;;;5011293;28;20749;-51
2020/12/04 06:52:30;;;;;;;4.17;3.77;;;;;;;;;;5011176;28;20420;-52
2020/12/04 06:54:56;;;;;;;3.47;3.17;;;;;;;;;;5011191;28;20447;-53
2020/12/04 06:57:24;;;;;;;4.00;3.70;;;;;;;;;;5011369;28;20399;-52
2020/12/04 06:59:51;;;;;;;3.45;3.25;;;;;;;;;;5011143;28;20416;-50
2020/12/04 07:02:18;;;;;;;3.45;3.13;;;;;;;;;;5010361;28;20173;-50
2020/12/04 07:04:53;;;;;;;3.97;3.65;;;;;;;;;;5010318;28;20192;-49
2020/12/04 07:07:19;;;;;;;2.70;2.50;;;;;;;;;;5010918;28;20269;-50
2020/12/04 07:09:53;;;;;;;3.30;3.10;;;;;;;;;;5009122;28;20264;-50
2020/12/04 07:12:20;;;;;;;3.03;2.83;;;;;;;;;;5009410;28;20472;-49
2020/12/04 07:14:48;;;;;;;3.17;2.95;;;;;;;;;;5010100;28;20450;-49
2020/12/04 07:17:15;;;;;;;3.72;3.42;;;;;;;;;;5010399;28;20172;-50
2020/12/04 07:19:45;;;;;;;3.08;2.88;;;;;;;;;;5010201;28;20242;-50
2020/12/04 07:22:11;;;;;;;3.17;2.97;;;;;;;;;;5010236;28;20168;-49
2020/12/04 07:24:38;;;;;;;3.47;3.17;;;;;;;;;;5010204;28;20421;-50
2020/12/04 07:27:06;;;;;;;3.08;2.88;;;;;;;;;;5010250;28;20403;-50
2020/12/04 07:29:32;;;;;;;3.67;2.85;;;;;;;;;;5014206;28;20177;-50
2020/12/04 07:31:58;;;;;;;2.93;2.73;;;;;;;;;;5014253;28;20177;-50
2020/12/04 07:34:25;;;;;;;3.60;3.30;;;;;;;;;;5014176;28;20441;-54
2020/12/04 07:36:57;;;;;;;2.72;2.53;;;;;;;;;;5014249;28;20170;-52
2020/12/04 07:39:24;;;;;;;3.10;2.90;;;;;;;;;;5014368;28;20276;-50
2020/12/04 07:41:50;;;;;;;2.97;2.75;;;;;;;;;;5014321;28;20174;-50
2020/12/04 07:44:17;;;;;;;3.27;2.97;;;;;;;;;;5013717;28;20619;-50
2020/12/04 07:46:43;;;;;;;3.00;2.80;;;;;;;;;;5014653;28;20758;-52
2020/12/04 07:49:10;;;;;;;2.33;2.22;;;;;;;;;;5014620;28;20407;-52
2020/12/04 07:51:37;;;;;;;3.03;2.83;;;;;;;;;;5014579;28;20176;-52
2020/12/04 07:54:05;;;;;;;2.75;2.55;;;;;;;;;;5014210;28;20238;-50
2020/12/04 07:56:32;;;;;;;2.92;2.72;;;;;;;;;;5014573;28;20270;-51
2020/12/04 07:59:01;;;;;;;2.33;2.22;;;;;;;;;;5014335;28;20205;-52
2020/12/04 08:01:29;;;;;;;2.47;2.28;;;;;;;;;;5014528;28;20181;-52
2020/12/04 08:03:55;;;;;;;2.47;2.33;;;;;;;;;;5013979;28;20189;-50
2020/12/04 08:06:22;;;;;;;2.60;2.40;;;;;;;;;;5014389;28;20939;-52
2020/12/04 08:08:48;;;;;;;2.75;2.55;;;;;;;;;;5014116;28;20908;-50
2020/12/04 08:11:15;;;;;;;3.23;2.90;;;;;;;;;;5013328;28;20755;-49
2020/12/04 08:13:44;;;;;;;2.25;2.15;;;;;;;;;;5012987;28;20486;-55
2020/12/04 08:16:10;;;;;;;3.60;2.73;;;;;;;;;;5013604;28;20194;-50
2020/12/04 08:18:36;;;;;;;5.73;2.20;;;;;;;;;;5013904;28;20487;-50
2020/12/04 08:21:05;;;;;;;2.53;2.20;;;;;;;;;;5014017;28;20404;-50
2020/12/04 08:23:32;;;;;;;2.40;2.20;;;;;;;;;;5012941;28;20892;-52
2020/12/04 08:25:58;;;;;;;2.70;2.50;;;;;;;;;;5014279;28;20400;-50
2020/12/04 08:28:24;;;;;;;2.50;2.40;;;;;;;;;;5014032;28;20430;-51
2020/12/04 08:30:50;;;;;;;2.17;2.07;;;;;;;;;;5013804;28;20412;-51
2020/12/04 08:33:16;;;;;;;2.57;2.40;;;;;;;;;;5013620;28;20401;-53
2020/12/04 08:35:43;;;;;;;1.90;1.80;;;;;;;;;;5013747;28;20405;-52
2020/12/04 08:38:09;;;;;;;2.90;2.70;;;;;;;;;;5013342;28;20929;-50
2020/12/04 08:40:36;;;;;;;2.17;1.97;;;;;;;;;;5013766;28;20494;-50
2020/12/04 08:43:12;;;;;;;1.90;1.80;;;;;;;;;;5012963;28;20457;-53
2020/12/04 08:45:39;;;;;;;2.60;2.43;;;;;;;;;;5013708;28;20507;-50
2020/12/04 08:48:13;;;;;;;2.40;2.20;;;;;;;;;;5013693;28;20513;-50
2020/12/04 08:50:40;;;;;;;3.13;2.87;;;;;;;;;;5013315;28;20456;-51
2020/12/04 08:53:08;;;;;;;1.80;1.70;;;;;;;;;;5013887;28;20887;-50
2020/12/04 08:55:34;;;;;;;2.07;1.97;;;;;;;;;;5013487;28;20594;-51
2020/12/04 08:58:00;;;;;;;1.57;1.47;;;;;;;;;;5013369;28;20507;-51
2020/12/04 09:00:35;;;;;;;2.33;2.23;;;;;;;;;;5013396;28;20400;-51
2020/12/04 09:03:01;;;;;;;2.07;1.97;;;;;;;;;;5013031;28;20929;-50
2020/12/04 09:05:27;;;;;;;2.20;2.00;;;;;;;;;;5013424;28;20493;-52
2020/12/04 09:07:53;;;;;;;1.83;1.73;;;;;;;;;;5013126;28;20401;-51
2020/12/04 09:10:20;;;;;;;4.00;2.00;;;;;;;;;;5013111;28;20406;-52
2020/12/04 09:12:47;;;;;;;2.13;1.97;;;;;;;;;;5011930;28;20462;-51
2020/12/04 09:15:15;;;;;;;2.40;2.20;;;;;;;;;;5013091;28;20945;-53
2020/12/04 09:17:41;;;;;;;1.90;1.80;;;;;;;;;;5012771;28;20493;-51
2020/12/04 09:20:08;;;;;;;2.57;2.37;;;;;;;;;;5012960;28;20886;-51
2020/12/04 09:22:34;;;;;;;2.70;2.50;;;;;;;;;;5011346;28;20419;-52
2020/12/04 09:25:00;;;;;;;2.03;1.83;;;;;;;;;;5010402;28;20434;-51
2020/12/04 09:27:27;;;;;;;2.03;1.93;;;;;;;;;;5012711;28;20408;-50
2020/12/04 09:29:53;;;;;;;2.30;2.20;;;;;;;;;;5012836;28;20720;-50
2020/12/04 09:32:19;;;;;;;1.90;1.80;;;;;;;;;;5012201;28;20421;-51
2020/12/04 09:34:47;;;;;;;1.80;1.70;;;;;;;;;;5011678;28;20484;-52
2020/12/04 09:37:14;;;;;;;2.23;2.03;;;;;;;;;;5012360;28;20414;-51
2020/12/04 09:39:43;;;;;;;3.00;2.00;;;;;;;;;;5014996;28;20457;-50
2020/12/04 09:42:10;;;;;;;7.33;2.27;;;;;;;;;;5029949;28;20418;-51
2020/12/04 09:44:36;;;;;;;2.53;2.33;;;;;;;;;;5011297;28;20601;-51
2020/12/04 09:47:02;;;;;;;2.30;2.10;;;;;;;;;;5011717;28;20515;-52
2020/12/04 09:49:28;;;;;;;2.90;1.83;;;;;;;;;;5027512;28;20406;-52
2020/12/04 09:51:58;;;;;;;2.03;1.77;;;;;;;;;;5028433;28;20420;-52
2020/12/04 09:54:28;;;;;;;2.13;1.90;;;;;;;;;;5029214;28;20556;-52
2020/12/04 09:56:57;;;;;;;1.97;1.87;;;;;;;;;;5021912;28;20517;-52
2020/12/04 09:59:23;;;;;;;1.90;1.73;;;;;;;;;;5016376;28;20466;-53
2020/12/04 10:01:50;;;;;;;2.13;2.00;;;;;;;;;;5011255;28;20486;-51
2020/12/04 10:04:17;;;;;;;2.07;1.97;;;;;;;;;;5011866;28;20419;-51
2020/12/04 10:06:43;;;;;;;2.30;2.20;;;;;;;;;;5011961;28;20780;-50
2020/12/04 10:09:09;;;;;;;2.23;2.03;;;;;;;;;;5012048;28;20407;-50
2020/12/04 10:11:35;;;;;;;1.97;1.87;;;;;;;;;;5010661;28;20823;-51
2020/12/04 10:14:01;;;;;;;2.13;2.03;;;;;;;;;;5009523;28;20546;-52
2020/12/04 10:16:27;;;;;;;1.90;1.80;;;;;;;;;;5010805;28;20887;-51
2020/12/04 10:18:53;;;;;;;2.63;2.20;;;;;;;;;;5011281;28;20513;-52
2020/12/04 10:21:19;;;;;;;1.77;1.67;;;;;;;;;;5011397;28;20399;-51
2020/12/04 10:23:45;;;;;;;1.73;1.63;;;;;;;;;;5010142;28;20425;-51
2020/12/04 10:26:11;;;;;;;2.10;2.00;;;;;;;;;;5009911;28;20887;-53
2020/12/04 10:28:37;;;;;;;1.70;1.60;;;;;;;;;;5011740;28;20443;-51
2020/12/04 10:31:03;;;;;;;2.53;2.10;;;;;;;;;;5008659;28;20956;-51
2020/12/04 10:33:29;;;;;;;1.80;1.70;;;;;;;;;;5014051;28;20465;-51
2020/12/04 10:35:55;;;;;;;1.77;1.67;;;;;;;;;;5023417;28;20496;-51
2020/12/04 10:38:21;;;;;;;1.90;1.80;;;;;;;;;;5030609;28;20461;-52
2020/12/04 10:40:47;;;;;;;1.90;1.80;;;;;;;;;;5030861;28;20470;-51
2020/12/04 10:43:13;;;;;;;1.73;1.63;;;;;;;;;;5020024;28;20453;-53
2020/12/04 10:45:39;;;;;;;1.60;1.50;;;;;;;;;;5019076;28;20399;-51
2020/12/04 10:48:05;;;;;;;1.57;1.47;;;;;;;;;;5011382;28;20915;-52
2020/12/04 10:50:31;;;;;;;1.73;1.63;;;;;;;;;;5011350;28;20403;-53
2020/12/04 10:52:57;;;;;;;2.00;1.80;;;;;;;;;;5010995;28;20407;-53
2020/12/04 10:55:23;;;;;;;1.77;1.67;;;;;;;;;;5011059;28;20442;-52
2020/12/04 10:57:49;;;;;;;1.80;1.70;;;;;;;;;;5011216;28;21073;-52
2020/12/04 11:00:15;;;;;;;1.57;1.47;;;;;;;;;;5010601;28;20418;-52
2020/12/04 11:02:41;;;;;;;1.40;1.30;;;;;;;;;;5010352;28;20415;-52
2020/12/04 11:07:52;;;;;;;1.63;1.53;;;;;;;;;;5010710;28;20465;-53
2020/12/04 11:10:19;;;;;;;1.90;1.63;;;;;;;;;;5010715;28;20395;-52
2020/12/04 11:12:45;;;;;;;2.90;1.70;;;;;;;;;;5009712;28;20395;-51
2020/12/04 11:15:11;;;;;;;3.23;1.47;;;;;;;;;;5010627;28;20431;-51
2020/12/04 11:17:39;;;;;;;1.77;1.67;;;;;;;;;;5010948;28;20398;-51
2020/12/04 11:20:05;;;;;;;1.50;1.40;;;;;;;;;;5010909;28;20746;-53
2020/12/04 11:22:35;;;;;;;1.80;1.70;;;;;;;;;;5010732;28;20895;-52
2020/12/04 11:25:01;;;;;;;2.03;1.27;;;;;;;;;;5010830;28;20792;-53
2020/12/04 11:27:27;;;;;;;1.63;1.50;;;;;;;;;;5010914;28;20406;-51
2020/12/04 11:29:53;;;;;;;1.60;1.50;;;;;;;;;;5010677;28;20411;-51
2020/12/04 11:32:19;;;;;;;3.50;1.60;;;;;;;;;;5010655;28;20405;-51
2020/12/04 11:34:45;;;;;;;1.50;1.40;;;;;;;;;;5010617;28;20820;-52
2020/12/04 11:37:11;;;;;;;1.77;1.40;;;;;;;;;;5010877;28;20487;-52
2020/12/04 11:39:41;;;;;;;1.90;1.70;;;;;;;;;;5010783;28;20549;-52
2020/12/04 11:42:10;;;;;;;2.20;1.80;;;;;;;;;;5010411;28;20878;-51
2020/12/04 11:44:36;;;;;;;1.60;1.40;;;;;;;;;;5009914;28;20442;-53
2020/12/04 11:47:03;;;;;;;2.13;1.60;;;;;;;;;;5010724;28;20407;-52
2020/12/04 11:49:28;;;;;;;1.50;1.40;;;;;;;;;;5010775;28;20411;-52
2020/12/04 11:51:56;;;;;;;4.40;1.50;;;;;;;;;;5010376;28;20407;-51
2020/12/04 11:54:22;;;;;;;4.07;1.63;;;;;;;;;;5010627;28;20787;-52
2020/12/04 11:56:50;;;;;;;3.53;1.53;;;;;;;;;;5010613;28;20410;-54
2020/12/04 11:59:16;;;;;;;1.83;1.60;;;;;;;;;;5010652;28;20455;-53
2020/12/04 12:01:42;;;;;;;1.73;1.57;;;;;;;;;;5010473;28;20407;-52
2020/12/04 12:04:12;;;;;;;1.93;1.83;;;;;;;;;;5010316;28;20927;-53
2020/12/04 12:06:38;;;;;;;2.07;1.93;;;;;;;;;;5010589;28;20443;-51
2020/12/04 12:09:04;;;;;;;2.07;1.97;;;;;;;;;;5010629;28;20446;-51
2020/12/04 12:11:30;;;;;;;1.70;1.60;;;;;;;;;;5010407;28;20409;-51
2020/12/04 12:13:56;;;;;;;1.83;1.60;;;;;;;;;;5010844;28;20426;-51
2020/12/04 12:16:22;;;;;;;1.77;1.67;;;;;;;;;;5013530;28;20981;-51
2020/12/04 12:18:48;;;;;;;2.10;2.00;;;;;;;;;;5013945;28;20564;-51
2020/12/04 12:21:14;;;;;;;1.57;1.47;;;;;;;;;;5014183;28;20417;-51
2020/12/04 12:23:40;;;;;;;1.53;1.43;;;;;;;;;;5013860;28;20423;-51
2020/12/04 12:26:06;;;;;;;10.37;2.20;;;;;;;;;;5014100;28;20936;-51
2020/12/04 12:28:32;;;;;;;2.00;1.80;;;;;;;;;;5013976;28;20958;-51
2020/12/04 12:30:59;;;;;;;2.40;1.60;;;;;;;;;;5014220;28;20507;-51
2020/12/04 12:33:25;;;;;;;3.97;2.07;;;;;;;;;;5013537;28;20453;-54
2020/12/04 12:35:51;;;;;;;3.63;2.00;;;;;;;;;;5014301;28;20414;-52
2020/12/04 12:38:17;;;;;;;2.80;1.77;;;;;;;;;;5013867;28;20462;-54
2020/12/04 12:40:43;;;;;;;1.90;1.80;;;;;;;;;;5014045;28;20492;-54
2020/12/04 12:43:09;;;;;;;1.87;1.60;;;;;;;;;;5013700;28;20476;-54
2020/12/04 12:45:36;;;;;;;1.90;1.80;;;;;;;;;;5012815;28;20435;-51
2020/12/04 12:48:02;;;;;;;2.27;2.10;;;;;;;;;;5013865;28;20407;-56
2020/12/04 12:50:27;;;;;;;1.90;1.80;;;;;;;;;;5013622;28;20795;-52
2020/12/04 12:52:54;;;;;;;1.80;1.70;;;;;;;;;;5012787;28;20523;-51
2020/12/04 12:55:19;;;;;;;1.70;1.60;;;;;;;;;;5013445;28;20438;-51
2020/12/04 12:57:46;;;;;;;2.00;1.90;;;;;;;;;;5013502;28;20407;-51
2020/12/04 13:00:12;;;;;;;4.73;2.10;;;;;;;;;;5012441;28;20427;-52
2020/12/04 13:02:38;;;;;;;1.83;1.73;;;;;;;;;;5013164;28;20430;-51
2020/12/04 13:07:49;;;;;;;1.90;1.80;;;;;;;;;;5013353;28;20499;-52
2020/12/04 13:10:15;;;;;;;1.80;1.70;;;;;;;;;;5013046;28;20395;-51
2020/12/04 13:12:43;;;;;;;1.97;1.80;;;;;;;;;;5012939;28;20457;-51
2020/12/04 13:15:09;;;;;;;1.83;1.73;;;;;;;;;;5011999;28;20439;-52
2020/12/04 13:17:35;;;;;;;2.33;2.00;;;;;;;;;;5013097;28;20469;-51
2020/12/04 13:20:01;;;;;;;3.47;2.10;;;;;;;;;;5012823;28;20447;-51
2020/12/04 13:22:27;;;;;;;2.70;1.50;;;;;;;;;;5012731;28;20891;-51
2020/12/04 13:24:53;;;;;;;1.77;1.60;;;;;;;;;;5011841;28;20426;-52
2020/12/04 13:27:19;;;;;;;1.90;1.80;;;;;;;;;;5012675;28;20778;-51
2020/12/04 13:29:45;;;;;;;1.97;1.87;;;;;;;;;;5012745;28;20403;-52
2020/12/04 13:32:11;;;;;;;2.80;1.87;;;;;;;;;;5012685;28;20434;-51
2020/12/04 13:34:38;;;;;;;2.10;2.00;;;;;;;;;;5012591;28;20823;-51
2020/12/04 13:37:05;;;;;;;1.90;1.80;;;;;;;;;;5012626;28;20411;-51
2020/12/04 13:39:31;;;;;;;2.57;1.50;;;;;;;;;;5012584;28;20965;-52
2020/12/04 13:41:57;;;;;;;1.70;1.60;;;;;;;;;;5012300;28;20446;-52
2020/12/04 13:44:23;;;;;;;2.53;2.07;;;;;;;;;;5012268;28;20427;-51
2020/12/04 13:46:50;;;;;;;2.10;1.77;;;;;;;;;;5011556;28;20434;-51
2020/12/04 13:49:17;;;;;;;1.97;1.87;;;;;;;;;;5012530;28;20441;-50
2020/12/04 13:51:43;;;;;;;1.80;1.70;;;;;;;;;;5012164;28;20403;-51
2020/12/04 13:54:09;;;;;;;2.20;1.90;;;;;;;;;;5012122;28;20423;-51
2020/12/04 13:56:39;;;;;;;1.50;1.40;;;;;;;;;;5012103;28;20407;-51
2020/12/04 13:59:05;;;;;;;1.83;1.73;;;;;;;;;;5012315;28;20459;-50
2020/12/04 14:01:32;;;;;;;1.60;1.50;;;;;;;;;;5012232;28;20430;-52
2020/12/04 14:03:58;;;;;;;1.83;1.53;;;;;;;;;;5011860;28;20494;-51
2020/12/04 14:06:24;;;;;;;1.67;1.50;;;;;;;;;;5012358;28;20477;-51
2020/12/04 14:08:50;;;;;;;1.77;1.67;;;;;;;;;;5012129;28;20887;-52
2020/12/04 14:11:18;;;;;;;1.87;1.50;;;;;;;;;;5012048;28;20410;-52
2020/12/04 14:13:45;;;;;;;1.63;1.53;;;;;;;;;;5011858;28;20807;-51
2020/12/04 14:16:11;;;;;;;1.53;1.43;;;;;;;;;;5009337;28;20471;-51
2020/12/04 14:18:37;;;;;;;1.63;1.53;;;;;;;;;;5010182;28;20956;-51
2020/12/04 14:21:07;;;;;;;1.43;1.33;;;;;;;;;;5010796;28;20399;-51
2020/12/04 14:23:33;;;;;;;1.70;1.60;;;;;;;;;;5011234;28;20419;-51
2020/12/04 14:25:59;;;;;;;1.67;1.57;;;;;;;;;;5011422;28;20393;-51
2020/12/04 14:28:25;;;;;;;3.20;1.87;;;;;;;;;;5011294;28;20407;-51
2020/12/04 14:30:51;;;;;;;1.53;1.40;;;;;;;;;;5011814;28;20407;-51
2020/12/04 14:33:17;;;;;;;1.70;1.60;;;;;;;;;;5010069;28;20411;-51
2020/12/04 14:35:43;;;;;;;1.90;1.70;;;;;;;;;;5011673;28;20406;-51
2020/12/04 14:38:09;;;;;;;2.10;1.67;;;;;;;;;;5011217;28;20464;-51
2020/12/04 14:40:35;;;;;;;1.53;1.43;;;;;;;;;;5011272;28;20410;-51
2020/12/04 14:43:01;;;;;;;1.60;1.50;;;;;;;;;;5011361;28;20403;-51
2020/12/04 14:45:28;;;;;;;1.77;1.40;;;;;;;;;;5010854;28;20456;-51
2020/12/04 14:47:54;;;;;;;1.90;1.80;;;;;;;;;;5011527;28;20411;-51